createdAt,value
2023-01-07T00:02:03.059Z,4.60
2023-01-07T00:05:04.656Z,4.67
2023-01-07T00:08:06.058Z,4.40
2023-01-07T00:11:10.010Z,4.50
2023-01-07T00:14:13.443Z,3.90
2023-01-07T00:17:14.848Z,4.20
2023-01-07T00:20:16.334Z,5.07
2023-01-07T00:23:17.828Z,4.53
2023-01-07T00:26:21.684Z,4.37
2023-01-07T00:29:23.086Z,4.50
2023-01-07T00:32:44.548Z,4.20
2023-01-07T00:35:46.009Z,3.87
2023-01-07T00:38:47.912Z,4.37
2023-01-07T00:42:07.922Z,3.90
2023-01-07T00:45:10.199Z,3.27
2023-01-07T00:48:11.638Z,3.63
2023-01-07T00:51:14.872Z,4.07
2023-01-07T00:54:16.364Z,3.43
2023-01-07T00:57:17.861Z,3.40
2023-01-07T01:00:20.956Z,3.00
2023-01-07T01:03:22.894Z,2.70
2023-01-07T01:06:24.383Z,2.97
2023-01-07T01:09:26.335Z,2.90
2023-01-07T01:12:28.160Z,2.70
2023-01-07T01:15:30.780Z,2.80
2023-01-07T01:18:32.169Z,2.70
2023-01-07T01:21:33.584Z,3.10
2023-01-07T01:24:34.965Z,2.80
2023-01-07T01:27:36.673Z,2.40
2023-01-07T01:30:38.064Z,2.63
2023-01-07T01:33:39.713Z,2.70
2023-01-07T01:36:41.387Z,2.77
2023-01-07T01:39:43.096Z,3.00
2023-01-07T01:42:44.520Z,2.83
2023-01-07T01:45:50.293Z,3.40
2023-01-07T01:48:59.600Z,3.00
2023-01-07T01:52:07.103Z,3.30
2023-01-07T01:55:10.087Z,2.90
2023-01-07T01:58:17.621Z,2.90
2023-01-07T02:01:20.033Z,2.77
2023-01-07T02:04:24.393Z,2.87
2023-01-07T02:07:25.827Z,3.43
2023-01-07T02:10:32.963Z,2.80
2023-01-07T02:13:54.172Z,2.93
2023-01-07T02:17:23.627Z,2.87
2023-01-07T02:20:46.240Z,2.87
2023-01-07T02:24:14.552Z,2.70
2023-01-07T02:27:43.742Z,2.87
2023-01-07T02:31:15.786Z,2.80
2023-01-07T02:34:22.465Z,2.60
2023-01-07T02:37:37.492Z,2.70
2023-01-07T02:41:04.527Z,2.53
2023-01-07T02:44:16.826Z,2.63
2023-01-07T02:47:41.054Z,2.43
2023-01-07T02:50:42.593Z,2.40
2023-01-07T02:53:47.527Z,2.70
2023-01-07T02:57:18.145Z,2.60
2023-01-07T03:00:22.716Z,2.40
2023-01-07T03:03:52.223Z,2.60
2023-01-07T03:07:30.790Z,2.30
2023-01-07T03:10:44.834Z,2.50
2023-01-07T03:13:55.798Z,2.60
2023-01-07T03:17:04.178Z,2.53
2023-01-07T03:20:06.690Z,2.40
2023-01-07T03:23:11.726Z,2.50
2023-01-07T03:26:15.138Z,2.47
2023-01-07T03:29:18.235Z,2.30
2023-01-07T03:32:38.148Z,2.40
2023-01-07T03:35:42.559Z,2.30
2023-01-07T03:38:45.607Z,2.50
2023-01-07T03:42:09.005Z,2.27
2023-01-07T03:45:14.429Z,2.40
2023-01-07T03:48:16.206Z,2.40
2023-01-07T03:51:17.774Z,2.53
2023-01-07T03:54:19.727Z,2.40
2023-01-07T03:57:21.262Z,2.67
2023-01-07T04:00:23.122Z,2.60
2023-01-07T04:03:30.250Z,2.10
2023-01-07T04:06:31.853Z,2.20
2023-01-07T04:09:33.308Z,2.20
2023-01-07T04:12:35.127Z,1.93
2023-01-07T04:15:36.798Z,2.20
2023-01-07T04:18:38.509Z,2.27
2023-01-07T04:21:40.500Z,2.23
2023-01-07T04:24:42.022Z,1.93
2023-01-07T04:27:44.024Z,1.93
2023-01-07T04:30:46.126Z,1.90
2023-01-07T04:33:47.794Z,2.00
2023-01-07T04:36:49.345Z,2.20
2023-01-07T04:39:50.974Z,1.93
2023-01-07T04:42:52.755Z,2.20
2023-01-07T04:45:54.723Z,2.00
2023-01-07T04:48:56.217Z,2.40
2023-01-07T04:51:59.229Z,2.67
2023-01-07T04:55:01.214Z,3.00
2023-01-07T04:58:02.716Z,3.30
2023-01-07T05:01:06.908Z,3.07
2023-01-07T05:04:09.535Z,2.73
2023-01-07T05:07:11.503Z,2.60
2023-01-07T05:10:13.297Z,2.40
2023-01-07T05:13:16.830Z,2.50
2023-01-07T05:16:18.595Z,2.40
2023-01-07T05:19:21.765Z,2.27
2023-01-07T05:22:23.906Z,2.27
2023-01-07T05:25:25.451Z,2.23
2023-01-07T05:28:27.499Z,2.30
2023-01-07T05:31:29.033Z,2.20
2023-01-07T05:34:30.649Z,2.03
2023-01-07T05:37:32.788Z,2.20
2023-01-07T05:40:34.457Z,2.13
2023-01-07T05:43:35.913Z,1.90
2023-01-07T05:46:37.334Z,1.90
2023-01-07T05:49:38.727Z,2.30
2023-01-07T05:52:40.107Z,2.07
2023-01-07T05:55:41.614Z,2.07
2023-01-07T05:58:43.009Z,1.67
2023-01-07T06:01:44.412Z,1.90
2023-01-07T06:04:45.849Z,1.73
2023-01-07T06:07:47.264Z,1.67
2023-01-07T06:10:48.698Z,1.80
2023-01-07T06:13:50.146Z,1.97
2023-01-07T06:16:51.603Z,2.27
2023-01-07T06:19:53.182Z,1.90
2023-01-07T06:22:54.608Z,1.90
2023-01-07T06:25:56.002Z,2.00
2023-01-07T06:28:57.438Z,2.60
2023-01-07T06:31:58.838Z,2.00
2023-01-07T06:35:00.313Z,2.50
2023-01-07T06:38:01.714Z,2.57
2023-01-07T06:41:03.181Z,2.27
2023-01-07T06:44:04.661Z,2.00
2023-01-07T06:47:06.333Z,1.70
2023-01-07T06:50:08.188Z,1.50
2023-01-07T06:53:09.558Z,1.83
2023-01-07T06:56:11.000Z,1.57
2023-01-07T06:59:12.530Z,1.70
2023-01-07T07:02:26.320Z,1.90
2023-01-07T07:05:28.188Z,1.70
2023-01-07T07:08:29.763Z,1.20
2023-01-07T07:11:31.169Z,1.20
2023-01-07T07:14:32.611Z,1.13
2023-01-07T07:17:34.761Z,1.20
2023-01-07T07:20:36.150Z,1.10
2023-01-07T07:23:37.557Z,1.00
2023-01-07T07:26:39.063Z,1.10
2023-01-07T07:29:40.536Z,0.87
2023-01-07T07:32:42.600Z,0.93
2023-01-07T07:35:44.620Z,1.17
2023-01-07T07:38:45.999Z,1.20
2023-01-07T07:41:47.382Z,1.20
2023-01-07T07:44:52.040Z,1.67
2023-01-07T07:47:53.473Z,1.03
2023-01-07T07:50:54.881Z,0.90
2023-01-07T07:53:56.276Z,1.00
2023-01-07T07:56:58.352Z,0.90
2023-01-07T07:59:59.760Z,1.00
2023-01-07T08:03:01.422Z,1.90
2023-01-07T08:06:06.874Z,1.60
2023-01-07T08:09:08.558Z,1.30
2023-01-07T08:12:09.963Z,1.10
2023-01-07T08:15:11.608Z,1.40
2023-01-07T08:18:13.201Z,1.70
2023-01-07T08:21:14.681Z,2.00
2023-01-07T08:24:16.155Z,1.60
2023-01-07T08:27:17.526Z,1.70
2023-01-07T08:30:18.974Z,1.40
2023-01-07T08:33:20.426Z,1.43
2023-01-07T08:36:23.387Z,1.30
2023-01-07T08:39:25.051Z,1.20
2023-01-07T08:42:26.858Z,1.30
2023-01-07T08:45:28.815Z,1.03
2023-01-07T08:48:30.230Z,1.03
2023-01-07T08:51:31.665Z,1.30
2023-01-07T08:54:33.161Z,1.17
2023-01-07T08:57:34.707Z,0.83
2023-01-07T09:00:36.187Z,1.20
2023-01-07T09:03:38.170Z,1.00
2023-01-07T09:06:39.732Z,0.90
2023-01-07T09:09:42.910Z,1.10
2023-01-07T09:12:44.291Z,1.00
2023-01-07T09:15:45.715Z,1.13
2023-01-07T09:18:47.096Z,0.90
2023-01-07T09:21:48.470Z,1.10
2023-01-07T09:24:49.860Z,1.17
2023-01-07T09:27:51.264Z,1.07
2023-01-07T09:30:52.685Z,0.80
2023-01-07T09:33:54.304Z,0.90
2023-01-07T09:36:55.732Z,0.90
2023-01-07T09:39:57.340Z,1.10
2023-01-07T09:43:16.466Z,1.07
2023-01-07T09:46:18.698Z,1.23
2023-01-07T09:49:29.837Z,1.30
2023-01-07T09:52:37.424Z,1.73
2023-01-07T09:56:10.003Z,1.10
2023-01-07T09:59:04.520Z,1.10
2023-01-07T10:02:15.084Z,1.13
2023-01-07T10:05:43.446Z,0.90
2023-01-07T10:09:04.155Z,1.30
2023-01-07T10:12:33.624Z,1.00
2023-01-07T10:15:59.899Z,1.20
2023-01-07T10:19:23.729Z,1.10
2023-01-07T10:22:40.050Z,0.97
2023-01-07T10:25:48.134Z,0.90
2023-01-07T10:28:57.691Z,1.30
2023-01-07T10:32:08.095Z,0.73
2023-01-07T10:35:14.746Z,1.00
2023-01-07T10:38:19.835Z,0.90
2023-01-07T10:41:41.927Z,0.70
2023-01-07T10:44:52.421Z,0.70
2023-01-07T10:47:56.884Z,0.90
2023-01-07T10:51:24.366Z,0.60
2023-01-07T10:54:48.728Z,0.60
2023-01-07T10:57:50.160Z,0.60
2023-01-07T11:00:51.842Z,1.30
2023-01-07T11:03:55.952Z,1.30
2023-01-07T11:07:06.735Z,2.50
2023-01-07T11:10:14.998Z,3.47
2023-01-07T11:13:21.123Z,1.23
2023-01-07T11:16:29.243Z,1.10
2023-01-07T11:19:45.739Z,1.00
2023-01-07T11:22:47.248Z,0.90
2023-01-07T11:25:49.205Z,0.80
2023-01-07T11:28:53.667Z,0.93
2023-01-07T11:31:57.184Z,0.90
2023-01-07T11:35:22.588Z,1.10
2023-01-07T11:38:29.381Z,1.97
2023-01-07T11:41:30.902Z,1.17
2023-01-07T11:44:32.466Z,1.10
2023-01-07T11:47:34.227Z,1.00
2023-01-07T11:50:38.684Z,1.13
2023-01-07T11:53:51.094Z,1.17
2023-01-07T11:56:55.153Z,1.20
2023-01-07T12:00:17.209Z,0.90
2023-01-07T12:03:18.965Z,1.03
2023-01-07T12:06:33.995Z,1.03
2023-01-07T12:09:38.676Z,1.07
2023-01-07T12:12:43.870Z,1.10
2023-01-07T12:16:01.899Z,1.30
2023-01-07T12:19:53.112Z,1.00
2023-01-07T12:23:23.394Z,0.90
2023-01-07T12:26:32.337Z,0.80
2023-01-07T12:29:57.646Z,1.00
2023-01-07T12:33:28.897Z,0.87
2023-01-07T12:36:40.110Z,0.70
2023-01-07T12:39:45.347Z,0.80
2023-01-07T12:42:59.275Z,0.90
2023-01-07T12:46:04.281Z,0.83
2023-01-07T12:49:13.535Z,0.80
2023-01-07T12:52:21.247Z,0.90
2023-01-07T12:55:28.378Z,0.90
2023-01-07T12:58:38.154Z,1.10
2023-01-07T13:01:51.002Z,1.00
2023-01-07T13:05:19.988Z,1.80
2023-01-07T13:08:43.577Z,1.50
2023-01-07T13:12:41.899Z,1.40
2023-01-07T13:15:44.477Z,1.40
2023-01-07T13:18:45.873Z,1.23
2023-01-07T13:21:49.296Z,1.10
2023-01-07T13:25:12.184Z,1.47
2023-01-07T13:28:38.981Z,1.83
2023-01-07T13:32:01.946Z,2.03
2023-01-07T13:35:25.462Z,2.20
2023-01-07T13:38:55.236Z,0.93
2023-01-07T13:42:19.747Z,1.30
2023-01-07T13:45:32.370Z,1.60
2023-01-07T13:48:34.712Z,1.17
2023-01-07T13:51:38.369Z,1.30
2023-01-07T13:54:48.574Z,1.20
2023-01-07T13:57:50.868Z,1.20
2023-01-07T14:01:12.212Z,1.47
2023-01-07T14:04:22.772Z,1.30
2023-01-07T14:07:24.352Z,1.30
2023-01-07T14:10:31.415Z,1.50
2023-01-07T14:13:42.367Z,1.50
2023-01-07T14:17:02.889Z,1.30
2023-01-07T14:20:38.571Z,1.67
2023-01-07T14:23:55.747Z,1.37
2023-01-07T14:27:18.436Z,1.90
2023-01-07T14:30:23.458Z,2.13
2023-01-07T14:33:27.118Z,2.30
2023-01-07T14:37:09.756Z,1.80
2023-01-07T14:40:26.489Z,2.67
2023-01-07T14:43:46.093Z,2.00
2023-01-07T14:46:48.920Z,1.60
2023-01-07T14:50:05.585Z,1.73
2023-01-07T14:53:29.124Z,1.90
2023-01-07T14:56:39.321Z,1.90
2023-01-07T15:00:02.728Z,1.57
2023-01-07T15:03:22.970Z,2.90
2023-01-07T15:06:33.957Z,2.40
2023-01-07T15:10:09.790Z,1.70
2023-01-07T15:13:39.996Z,3.73
2023-01-07T15:16:43.499Z,4.77
2023-01-07T15:19:45.380Z,3.17
2023-01-07T15:23:34.408Z,3.50
2023-01-07T15:27:07.251Z,2.80
2023-01-07T15:30:20.377Z,2.80
2023-01-07T15:33:50.676Z,2.80
2023-01-07T15:36:52.517Z,3.57
2023-01-07T15:39:57.779Z,4.10
2023-01-07T15:42:59.425Z,4.53
2023-01-07T15:46:04.637Z,4.30
2023-01-07T15:49:09.032Z,4.57
2023-01-07T15:52:27.529Z,5.43
2023-01-07T15:55:50.090Z,5.27
2023-01-07T15:58:51.825Z,3.77
2023-01-07T16:01:59.989Z,3.50
2023-01-07T16:05:04.963Z,3.40
2023-01-07T16:08:14.863Z,4.90
2023-01-07T16:11:25.813Z,5.87
2023-01-07T16:14:28.072Z,4.63
2023-01-07T16:17:29.605Z,4.20
2023-01-07T16:20:36.015Z,3.80
2023-01-07T16:23:39.318Z,4.70
2023-01-07T16:26:49.282Z,5.37
2023-01-07T16:29:54.679Z,5.60
2023-01-07T16:32:56.716Z,5.77
2023-01-07T16:36:01.850Z,5.27
2023-01-07T16:39:12.188Z,5.57
2023-01-07T16:42:20.060Z,5.67
2023-01-07T16:45:25.141Z,5.77
2023-01-07T16:48:26.647Z,5.20
2023-01-07T16:51:37.212Z,6.97
2023-01-07T16:54:41.208Z,7.57
2023-01-07T16:57:44.956Z,7.90
2023-01-07T17:00:51.953Z,7.60
2023-01-07T17:03:58.219Z,7.00
2023-01-07T17:07:01.328Z,7.20
2023-01-07T17:10:03.107Z,7.37
2023-01-07T17:13:36.244Z,7.37
2023-01-07T17:16:38.505Z,6.07
2023-01-07T17:19:41.860Z,6.60
2023-01-07T17:22:43.540Z,7.70
2023-01-07T17:25:45.144Z,7.47
2023-01-07T17:28:50.436Z,6.90
2023-01-07T17:31:51.968Z,7.50
2023-01-07T17:34:53.502Z,7.20
2023-01-07T17:37:56.606Z,6.60
2023-01-07T17:40:58.067Z,6.63
2023-01-07T17:43:59.491Z,6.50
2023-01-07T17:47:00.939Z,6.47
2023-01-07T17:50:02.376Z,5.90
2023-01-07T17:53:04.663Z,6.00
2023-01-07T17:56:06.388Z,5.40
2023-01-07T17:59:14.795Z,5.63
2023-01-07T18:02:23.188Z,5.37
2023-01-07T18:05:26.239Z,5.50
2023-01-07T18:08:27.831Z,5.83
2023-01-07T18:11:48.204Z,5.90
2023-01-07T18:14:49.650Z,5.93
2023-01-07T18:17:51.807Z,5.80
2023-01-07T18:20:54.094Z,5.80
2023-01-07T18:23:55.536Z,5.57
2023-01-07T18:26:56.934Z,5.97
2023-01-07T18:29:58.362Z,5.63
2023-01-07T18:32:59.750Z,5.70
2023-01-07T18:36:01.535Z,6.30
2023-01-07T18:39:04.080Z,7.77
2023-01-07T18:42:05.768Z,7.97
2023-01-07T18:45:07.721Z,9.70
2023-01-07T18:48:10.316Z,9.50
2023-01-07T18:51:12.027Z,8.40
2023-01-07T18:54:14.231Z,7.93
2023-01-07T18:57:15.791Z,7.23
2023-01-07T19:00:17.428Z,6.80
2023-01-07T19:03:18.883Z,6.93
2023-01-07T19:06:20.259Z,6.70
2023-01-07T19:09:22.992Z,6.87
2023-01-07T19:12:24.396Z,6.40
2023-01-07T19:15:25.802Z,6.63
2023-01-07T19:18:28.131Z,5.67
2023-01-07T19:21:29.915Z,6.00
2023-01-07T19:24:31.403Z,6.13
2023-01-07T19:27:32.903Z,5.60
2023-01-07T19:30:34.377Z,5.90
2023-01-07T19:33:36.557Z,5.87
2023-01-07T19:36:38.196Z,6.83
2023-01-07T19:39:40.468Z,9.20
2023-01-07T19:42:41.906Z,7.50
2023-01-07T19:45:52.873Z,6.37
2023-01-07T19:48:54.298Z,6.30
2023-01-07T19:51:56.045Z,6.20
2023-01-07T19:54:57.636Z,5.93
2023-01-07T19:57:59.063Z,6.23
2023-01-07T20:01:04.377Z,5.60
2023-01-07T20:04:07.917Z,5.93
2023-01-07T20:07:09.344Z,6.00
2023-01-07T20:10:11.641Z,5.97
2023-01-07T20:13:13.032Z,6.00
2023-01-07T20:16:21.785Z,6.23
2023-01-07T20:19:23.366Z,6.97
2023-01-07T20:22:24.769Z,7.33
2023-01-07T20:25:26.238Z,7.30
2023-01-07T20:28:28.947Z,7.20
2023-01-07T20:31:31.213Z,5.70
2023-01-07T20:34:32.790Z,5.93
2023-01-07T20:37:34.570Z,6.13
2023-01-07T20:40:39.928Z,5.90
2023-01-07T20:43:41.511Z,5.97
2023-01-07T20:46:42.929Z,6.37
2023-01-07T20:49:44.863Z,7.07
2023-01-07T20:52:46.240Z,6.90
2023-01-07T20:55:51.363Z,6.40
2023-01-07T20:58:52.819Z,6.70
2023-01-07T21:01:54.357Z,6.73
2023-01-07T21:04:56.093Z,6.53
2023-01-07T21:07:59.150Z,6.90
2023-01-07T21:11:00.681Z,6.73
2023-01-07T21:14:02.112Z,6.70
2023-01-07T21:17:03.620Z,7.60
2023-01-07T21:20:06.259Z,8.70
2023-01-07T21:23:07.842Z,7.43
2023-01-07T21:26:10.102Z,6.43
2023-01-07T21:29:11.533Z,6.53
2023-01-07T21:32:13.962Z,6.17
2023-01-07T21:35:15.479Z,6.90
2023-01-07T21:38:16.857Z,6.53
2023-01-07T21:41:18.423Z,6.67
2023-01-07T21:44:19.801Z,5.93
2023-01-07T21:47:21.211Z,7.23
2023-01-07T21:50:22.606Z,7.50
2023-01-07T21:53:23.990Z,7.90
2023-01-07T21:56:32.505Z,7.50
2023-01-07T21:59:33.924Z,6.97
2023-01-07T22:02:35.309Z,6.83
2023-01-07T22:05:36.868Z,6.57
2023-01-07T22:08:38.235Z,8.47
2023-01-07T22:11:41.389Z,7.40
2023-01-07T22:14:42.772Z,6.97
2023-01-07T22:17:44.140Z,6.53
2023-01-07T22:20:52.466Z,7.67
2023-01-07T22:23:53.875Z,7.17
2023-01-07T22:26:55.435Z,6.77
2023-01-07T22:29:57.592Z,7.67
2023-01-07T22:32:59.011Z,8.20
2023-01-07T22:36:00.468Z,8.97
2023-01-07T22:39:04.595Z,9.13
2023-01-07T22:42:13.849Z,8.33
2023-01-07T22:45:21.079Z,7.27
2023-01-07T22:48:27.099Z,6.57
2023-01-07T22:51:36.917Z,7.33
2023-01-07T22:54:39.834Z,7.20
2023-01-07T22:57:41.879Z,6.80
2023-01-07T23:00:46.197Z,6.43
2023-01-07T23:03:47.867Z,6.70
2023-01-07T23:06:49.416Z,7.03
2023-01-07T23:09:51.721Z,8.80
2023-01-07T23:12:53.218Z,6.67
2023-01-07T23:15:54.769Z,6.30
2023-01-07T23:18:56.171Z,6.37
2023-01-07T23:21:57.601Z,6.60
2023-01-07T23:24:59.004Z,7.10
2023-01-07T23:28:00.404Z,6.70
2023-01-07T23:31:02.008Z,6.60
2023-01-07T23:34:04.319Z,7.33
2023-01-07T23:37:05.801Z,6.47
2023-01-07T23:40:08.773Z,6.47
2023-01-07T23:43:10.354Z,6.23
2023-01-07T23:46:11.877Z,6.50
2023-01-07T23:49:13.307Z,6.63
2023-01-07T23:52:15.005Z,6.37
2023-01-07T23:55:16.437Z,6.47
2023-01-07T23:58:18.112Z,5.43
